HomeShort term forecast

Short term forecast

Graphical weather forecast for the next 48 hours for Montreal:
Short term forecast
This weather forecast is automatically refreshed every 3 hours.

Hourly Experimental Forecast for the next 48 hours ®

Overall summary: Heavy rain until this afternoon, starting again this evening, and breezy until this afternoon.

 Date & Hour   Temp   Feel   Baro   Hum   Speed & Bearing   Wind Gust   Precip.%   Precip.   Visibility   Cloud cover   Conditions 
 21/09/2018 - 08:00  16.1°C  16.1°C  1015.1 hPa  89%  21.4 km/h   54.3 km/h  100%  1.22 mm/h  16.1km  99%  Light Rain 
 21/09/2018 - 09:00  16.2°C  16.3°C  1013.9 hPa  92%  18.4 km/h   44.7 km/h  87%  1.84 mm/h  16.1km  93%  Rain 
 21/09/2018 - 10:00  16.7°C  16.9°C  1012.6 hPa  94%  21.4 km/h   45.4 km/h  84%  10.78 mm/h  8.6km  100%  Heavy Rain 
 21/09/2018 - 11:00  17.6°C  17.9°C  1011.5 hPa  94%  24.2 km/h   44.8 km/h  81%  2.65 mm/h  10.0km  93%  Rain and Breezy 
 21/09/2018 - 12:00  18.6°C  18.9°C  1010.1 hPa  93%  25.6 km/h   51.7 km/h  70%  1.32 mm/h  14.9km  94%  Light Rain and Breezy 
 21/09/2018 - 13:00  19.9°C  20.3°C  1009.0 hPa  89%  22.2 km/h   40.0 km/h  52%  0.69 mm/h  15.1km  81%  Light Rain 
 21/09/2018 - 14:00  21.6°C  22.0°C  1007.6 hPa  85%  24.0 km/h   49.8 km/h  34%  0.48 mm/h  16.1km  64%  Mostly Cloudy 
 21/09/2018 - 15:00  23.3°C  23.7°C  1006.0 hPa  78%  26.9 km/h   53.6 km/h  13%  0.17 mm/h  16.1km  59%  Breezy and Partly Cloudy 
 21/09/2018 - 16:00  24.4°C  24.8°C  1004.4 hPa  73%  30.1 km/h   59.1 km/h  5%  0.02 mm/h  16.1km  58%  Breezy and Partly Cloudy 
 21/09/2018 - 17:00  25.2°C  25.6°C  1002.8 hPa  69%  31.9 km/h   60.0 km/h  4%  0.03 mm/h  16.1km  48%  Breezy and Partly Cloudy 
 21/09/2018 - 18:00  24.8°C  25.2°C  1002.0 hPa  70%  32.6 km/h   59.8 km/h  7%  0.14 mm/h  16.1km  35%  Breezy and Partly Cloudy 
 21/09/2018 - 19:00  23.7°C  24.1°C  1001.1 hPa  73%  33.7 km/h   63.5 km/h  31%  0.68 mm/h  16.1km  63%  Light Rain and Windy 
 21/09/2018 - 20:00  22.7°C  23.1°C  1000.8 hPa  77%  33.8 km/h   67.4 km/h  53%  2.49 mm/h  12.0km  65%  Rain and Windy 
 21/09/2018 - 21:00  21.7°C  22.0°C  1001.3 hPa  81%  36.7 km/h   76.5 km/h  35%  1.35 mm/h  16.1km  70%  Light Rain and Dangerously Windy 
 21/09/2018 - 22:00  21.0°C  21.4°C  1002.1 hPa  85%  35.5 km/h   75.3 km/h  41%  1.01 mm/h  13.7km  89%  Light Rain and Windy 
 21/09/2018 - 23:00  20.9°C  21.3°C  1003.3 hPa  84%  34.7 km/h   72.7 km/h  34%  0.93 mm/h  11.8km  96%  Light Rain and Windy 
 22/09/2018 - 00:00  19.7°C  19.8°C  1004.6 hPa  82%  32.7 km/h   68.3 km/h  30%  0.51 mm/h  10.7km  80%  Windy and Mostly Cloudy 
 22/09/2018 - 01:00  17.9°C  17.9°C  1006.3 hPa  76%  33.2 km/h   62.3 km/h  18%  0.10 mm/h  9.9km  52%  Breezy and Partly Cloudy 
 22/09/2018 - 02:00  16.1°C  16.1°C  1008.1 hPa  70%  31.8 km/h   56.3 km/h  11%  0.02 mm/h  10.9km  33%  Breezy and Partly Cloudy 
 22/09/2018 - 03:00  14.5°C  14.5°C  1010.3 hPa  68%  28.9 km/h   51.1 km/h  6%  0.01 mm/h  15.5km  34%  Breezy and Partly Cloudy 
 22/09/2018 - 04:00  13.0°C  13.0°C  1012.7 hPa  68%  25.3 km/h   45.9 km/h  0%  --  16.1km  39%  Breezy and Partly Cloudy 
 22/09/2018 - 05:00  11.8°C  11.8°C  1014.9 hPa  67%  22.2 km/h   41.0 km/h  0%  --  16.1km  42%  Partly Cloudy 
 22/09/2018 - 06:00  10.7°C  10.7°C  1017.0 hPa  68%  19.5 km/h   36.2 km/h  0%  --  16.1km  37%  Partly Cloudy 
 22/09/2018 - 07:00  9.7°C  7.3°C  1019.0 hPa  70%  17.3 km/h   31.7 km/h  3%  0.01 mm/h  16.1km  30%  Partly Cloudy 
 22/09/2018 - 08:00  9.4°C  7.1°C  1020.6 hPa  68%  15.6 km/h   27.7 km/h  3%  0.01 mm/h  16.1km  22%  Clear 
 22/09/2018 - 09:00  10.0°C  10.0°C  1021.7 hPa  63%  14.7 km/h   24.2 km/h  2%  0.01 mm/h  16.1km  15%  Clear 
 22/09/2018 - 10:00  11.2°C  11.2°C  1022.5 hPa  57%  14.4 km/h   21.1 km/h  0%  --  16.1km  7%  Clear 
 22/09/2018 - 11:00  12.6°C  12.6°C  1023.0 hPa  51%  14.4 km/h   19.1 km/h  0%  --  16.1km  2%  Clear 
 22/09/2018 - 12:00  13.6°C  13.6°C  1023.1 hPa  48%  14.2 km/h   18.6 km/h  0%  --  16.1km  1%  Clear 
 22/09/2018 - 13:00  14.5°C  14.5°C  1022.9 hPa  46%  14.5 km/h   19.3 km/h  0%  --  16.1km  1%  Clear 
 22/09/2018 - 14:00  15.3°C  15.3°C  1022.7 hPa  44%  14.8 km/h   19.9 km/h  0%  --  16.1km  1%  Clear 
 22/09/2018 - 15:00  16.1°C  16.1°C  1022.3 hPa  42%  15.1 km/h   20.3 km/h  0%  --  16.1km  2%  Clear 
 22/09/2018 - 16:00  16.7°C  16.7°C  1022.0 hPa  41%  15.7 km/h   20.8 km/h  0%  --  16.1km  3%  Clear 
 22/09/2018 - 17:00  16.5°C  16.5°C  1021.7 hPa  42%  16.0 km/h   21.3 km/h  0%  --  16.1km  3%  Clear 
 22/09/2018 - 18:00  15.5°C  15.5°C  1022.0 hPa  46%  14.7 km/h   22.1 km/h  0%  --  16.1km  4%  Clear 
 22/09/2018 - 19:00  13.7°C  13.7°C  1022.3 hPa  52%  12.7 km/h   22.9 km/h  0%  --  16.1km  4%  Clear 
 22/09/2018 - 20:00  12.3°C  12.3°C  1022.7 hPa  58%  11.3 km/h   22.6 km/h  0%  --  16.1km  4%  Clear 
 22/09/2018 - 21:00  11.4°C  11.4°C  1022.9 hPa  61%  10.3 km/h   20.6 km/h  0%  --  16.1km  3%  Clear 
 22/09/2018 - 22:00  10.8°C  10.8°C  1023.1 hPa  64%  9.7 km/h   17.7 km/h  0%  --  16.1km  1%  Clear 
 22/09/2018 - 23:00  10.3°C  10.3°C  1023.1 hPa  66%  9.5 km/h   16.3 km/h  0%  --  16.1km  0%  Clear 
 23/09/2018 - 00:00  9.8°C  8.5°C  1023.1 hPa  66%  9.6 km/h   17.7 km/h  0%  --  16.1km  2%  Clear 
 23/09/2018 - 01:00  9.5°C  8.1°C  1023.0 hPa  66%  10.0 km/h   20.6 km/h  0%  --  16.1km  4%  Clear 
 23/09/2018 - 02:00  9.1°C  7.5°C  1022.8 hPa  68%  10.5 km/h   23.4 km/h  0%  --  16.1km  7%  Clear 
 23/09/2018 - 03:00  8.3°C  6.4°C  1022.7 hPa  72%  11.1 km/h   25.7 km/h  0%  --  16.1km  8%  Clear 
 23/09/2018 - 04:00  7.7°C  5.6°C  1022.6 hPa  76%  11.9 km/h   27.9 km/h  0%  --  16.1km  9%  Clear 
 23/09/2018 - 05:00  7.4°C  5.1°C  1022.7 hPa  78%  12.6 km/h   29.3 km/h  0%  --  16.1km  10%  Clear 
 23/09/2018 - 06:00  7.5°C  5.0°C  1023.0 hPa  79%  13.3 km/h   29.6 km/h  0%  --  16.1km  12%  Clear 
 23/09/2018 - 07:00  7.6°C  5.2°C  1023.6 hPa  78%  13.8 km/h   29.2 km/h  0%  --  16.1km  13%  Clear 
Test

 

Past weather and reports

Past weatherFind in this section the past weather conditions, weather archive, graphics, reports and statistics.

Current conditions

Current weather condition for MontrealAll you need to know about the current weather conditions for Montreal. Weather data is updated every 10 minutes.

Weather forecast

Current Montreal weatherSince 2004, celinium.com website has provided accurate weather forecast for Montreal's island.